Ionia, Iowa
Current Conditions -  °F | °C
As of 2:35 AM on Friday 19 Dec 2014 (Local Time) from KCCY Reporting Station
Overcast Overcast  
Wind Chill: 23°   Ceiling: 7000
Heat Index: 23°   Visibility: 9mi
Dew Point: 19°   Wind: 3mph
Humidity: 86%   Direction: 200°SSW
Pressure: 30.28"   Gusts: NA
Location:  43.03°N, 92.46°W
Report Text: KCCY 190835Z AUTO 20003KT 9SM OVC070 M05/M07 A3028 RMK AO2
Loading
Personal Weather Stations






























Interactive Weather Map New forecast layout! Learn more

10-Day Weather Forecast

Advertisements
Track Severe Weather on mobile